Time;durP1;ratioP1;P1;durP2;ratioP2;P2;SDS_P1;SDS_P2;PMS_P1;PMS_P2;Temp;Humidity;BMP_temperature;BMP_pressure;BME280_temperature;BME280_humidity;BME280_pressure;Samples;Min_cycle;Max_cycle;Signal;HPM_P1;HPM_P2
2024/02/11 00:01:41;;;;;;;8.65;3.28;;;;;;;;;;6095157;23;20011;-96
2024/02/11 00:04:27;;;;;;;13.48;3.33;;;;;;;;;;6109074;23;20002;-95
2024/02/11 00:07:14;;;;;;;14.43;3.35;;;;;;;;;;6093666;23;20809;-94
2024/02/11 00:12:51;;;;;;;12.85;3.20;;;;;;;;;;6002822;23;20053;-96
2024/02/11 00:18:51;;;;;;;15.27;3.55;;;;;;;;;;6001766;23;20097;-96
2024/02/11 00:21:56;;;;;;;13.88;4.10;;;;;;;;;;5976492;24;20065;-96
2024/02/11 00:24:32;;;;;;;14.85;4.60;;;;;;;;;;6044971;23;19996;-95
2024/02/11 00:27:31;;;;;;;17.13;5.72;;;;;;;;;;6059429;23;20441;-96
2024/02/11 00:30:43;;;;;;;17.98;5.60;;;;;;;;;;6059779;23;20022;-96
2024/02/11 00:33:28;;;;;;;14.48;4.82;;;;;;;;;;6027758;23;19992;-96
2024/02/11 00:36:34;;;;;;;13.93;4.22;;;;;;;;;;6054655;23;20015;-95
2024/02/11 00:39:02;;;;;;;13.48;4.18;;;;;;;;;;6019961;23;20429;-95
2024/02/11 00:41:28;;;;;;;13.50;4.68;;;;;;;;;;6019200;23;20062;-94
2024/02/11 00:43:55;;;;;;;11.77;4.50;;;;;;;;;;6043120;23;20467;-93
2024/02/11 00:46:23;;;;;;;14.48;4.47;;;;;;;;;;6045667;23;20065;-96
2024/02/11 00:48:55;;;;;;;13.48;4.55;;;;;;;;;;6048537;23;20019;-96
2024/02/11 00:51:27;;;;;;;11.85;4.43;;;;;;;;;;6052122;23;20026;-96
2024/02/11 00:53:53;;;;;;;13.18;4.63;;;;;;;;;;6079263;23;20007;-95
2024/02/11 00:56:24;;;;;;;14.77;4.82;;;;;;;;;;6079723;23;20003;-96
2024/02/11 00:58:57;;;;;;;14.50;5.43;;;;;;;;;;6104988;23;20074;-96
2024/02/11 01:01:40;;;;;;;11.05;4.53;;;;;;;;;;6085963;23;20392;-96
2024/02/11 01:04:07;;;;;;;13.75;4.65;;;;;;;;;;6093384;23;20022;-96
2024/02/11 01:06:34;;;;;;;16.48;5.28;;;;;;;;;;6077613;23;19994;-96
2024/02/11 01:09:01;;;;;;;13.95;5.70;;;;;;;;;;6118585;23;20009;-95
2024/02/11 01:11:28;;;;;;;12.38;4.85;;;;;;;;;;6108113;23;20015;-96
2024/02/11 01:13:54;;;;;;;13.57;4.75;;;;;;;;;;6084516;23;20006;-95
2024/02/11 01:16:20;;;;;;;17.75;5.32;;;;;;;;;;6091823;23;20018;-96
2024/02/11 01:18:57;;;;;;;12.40;6.20;;;;;;;;;;6086872;23;20006;-96
2024/02/11 01:22:03;;;;;;;14.35;4.95;;;;;;;;;;6089532;23;19994;-96
2024/02/11 01:24:35;;;;;;;10.95;4.97;;;;;;;;;;6103694;23;20018;-96
2024/02/11 01:27:08;;;;;;;14.70;5.28;;;;;;;;;;6082428;23;20010;-96
2024/02/11 01:29:41;;;;;;;9.65;4.55;;;;;;;;;;6085936;23;20006;-94
2024/02/11 01:34:43;;;;;;;15.93;5.07;;;;;;;;;;6093168;23;20027;-96
2024/02/11 01:37:57;;;;;;;;;;;;;;;;;;;;;
2024/02/11 01:40:26;;;;;;;13.77;4.65;;;;;;;;;;5945532;24;20017;-96
2024/02/11 01:43:00;;;;;;;13.38;4.90;;;;;;;;;;6009319;23;20007;-96
2024/02/11 01:45:29;;;;;;;13.20;4.93;;;;;;;;;;6084687;23;20011;-96
2024/02/11 01:48:00;;;;;;;13.27;5.38;;;;;;;;;;6092624;23;20009;-95
2024/02/11 01:50:32;;;;;;;22.08;8.82;;;;;;;;;;6091400;23;20066;-96
2024/02/11 01:53:20;;;;;;;12.02;5.13;;;;;;;;;;6104850;23;20002;-95
2024/02/11 01:55:46;;;;;;;15.93;6.32;;;;;;;;;;6083305;23;20089;-95
2024/02/11 01:58:42;;;;;;;12.73;5.50;;;;;;;;;;6085112;23;20012;-95
2024/02/11 02:01:21;;;;;;;11.55;4.60;;;;;;;;;;6096855;23;19990;-96
2024/02/11 02:03:57;;;;;;;11.77;5.38;;;;;;;;;;6109892;23;20017;-96
2024/02/11 02:06:33;;;;;;;12.57;4.65;;;;;;;;;;6109494;23;20006;-96
2024/02/11 02:09:08;;;;;;;11.57;5.20;;;;;;;;;;6080345;23;20013;-96
2024/02/11 02:11:58;;;;;;;11.57;5.60;;;;;;;;;;6062897;23;20018;-92
2024/02/11 02:14:56;;;;;;;12.77;5.10;;;;;;;;;;6110970;23;20003;-96
2024/02/11 02:17:27;;;;;;;10.23;4.80;;;;;;;;;;6091368;23;20006;-95
2024/02/11 02:20:30;;;;;;;11.50;5.28;;;;;;;;;;6089862;23;20014;-96
2024/02/11 02:26:08;;;;;;;14.10;5.03;;;;;;;;;;6182654;23;20060;-96
2024/02/11 02:32:12;;;;;;;11.02;4.63;;;;;;;;;;6117074;23;20032;-95
2024/02/11 02:34:43;;;;;;;10.77;5.32;;;;;;;;;;6180545;23;20040;-96
2024/02/11 02:37:55;;;;;;;12.25;5.47;;;;;;;;;;6209010;23;20028;-96
2024/02/11 02:40:47;;;;;;;10.30;5.45;;;;;;;;;;6180020;23;20020;-96
2024/02/11 02:46:07;;;;;;;11.25;5.30;;;;;;;;;;6117608;23;20022;-93
2024/02/11 02:49:04;;;;;;;11.35;5.32;;;;;;;;;;6088815;23;19997;-95
2024/02/11 02:51:35;;;;;;;10.60;4.90;;;;;;;;;;6093915;23;20029;-96
2024/02/11 02:54:57;;;;;;;9.82;5.30;;;;;;;;;;6113912;23;20045;-96
2024/02/11 02:58:08;;;;;;;12.30;5.45;;;;;;;;;;5966190;24;20004;-96
2024/02/11 03:00:54;;;;;;;11.07;5.75;;;;;;;;;;5970626;24;20008;-96
2024/02/11 03:03:22;;;;;;;12.38;5.85;;;;;;;;;;5974527;24;20008;-96
2024/02/11 03:06:07;;;;;;;14.45;5.80;;;;;;;;;;5976546;24;19997;-93
2024/02/11 03:17:09;;;;;;;;;;;;;;;;;;6146296;23;20069;-96
2024/02/11 03:19:49;;;;;;;17.00;5.57;;;;;;;;;;6141373;23;19904;-96
2024/02/11 03:25:25;;;;;;;10.20;5.78;;;;;;;;;;6173766;23;20012;-96
2024/02/11 03:27:59;;;;;;;11.57;5.85;;;;;;;;;;6147562;23;20032;-96
2024/02/11 03:30:27;;;;;;;15.15;6.65;;;;;;;;;;6139619;23;20014;-96
2024/02/11 03:33:07;;;;;;;12.68;6.15;;;;;;;;;;6171249;23;20006;-96
2024/02/11 03:35:45;;;;;;;13.75;7.03;;;;;;;;;;6142644;23;20014;-96
2024/02/11 03:42:04;;;;;;;11.88;6.30;;;;;;;;;;6079748;23;20018;-90
2024/02/11 03:48:13;;;;;;;13.05;6.53;;;;;;;;;;6180641;23;20024;-96
2024/02/11 04:04:25;;;;;;;14.93;8.48;;;;;;;;;;5945477;24;20017;-96
2024/02/11 04:07:00;;;;;;;19.45;8.15;;;;;;;;;;5944469;24;20029;-96
2024/02/11 04:09:52;;;;;;;14.50;7.40;;;;;;;;;;5931345;24;20004;-96
2024/02/11 04:12:58;;;;;;;17.65;7.07;;;;;;;;;;5960594;24;20013;-96
2024/02/11 04:15:37;;;;;;;11.93;7.03;;;;;;;;;;6131321;23;20009;-96
2024/02/11 04:18:21;;;;;;;14.77;7.20;;;;;;;;;;6151637;23;20010;-96
2024/02/11 04:21:21;;;;;;;12.73;7.45;;;;;;;;;;6170061;23;20121;-96
2024/02/11 04:23:49;;;;;;;15.55;7.30;;;;;;;;;;6148287;23;20134;-96
2024/02/11 04:27:04;;;;;;;;;;;;;;;;;;;;;
2024/02/11 04:29:38;;;;;;;14.65;7.40;;;;;;;;;;6040640;23;20513;-96
2024/02/11 04:32:30;;;;;;;18.60;7.88;;;;;;;;;;6121890;23;20013;-96
2024/02/11 04:34:59;;;;;;;18.73;7.97;;;;;;;;;;6148913;23;20022;-96
2024/02/11 04:37:53;;;;;;;15.43;8.25;;;;;;;;;;6175853;23;20010;-96
2024/02/11 04:41:00;;;;;;;18.83;8.32;;;;;;;;;;6175533;23;20016;-96
2024/02/11 04:43:55;;;;;;;14.80;8.80;;;;;;;;;;6174787;23;20010;-96
2024/02/11 04:49:37;;;;;;;23.23;10.10;;;;;;;;;;6176139;23;20020;-96
2024/02/11 04:52:55;;;;;;;22.10;10.55;;;;;;;;;;6166776;23;20018;-96
2024/02/11 04:58:38;;;;;;;20.42;9.95;;;;;;;;;;6113099;23;20030;-91
2024/02/11 05:01:27;;;;;;;18.58;8.85;;;;;;;;;;6139304;23;20005;-96
2024/02/11 05:03:57;;;;;;;16.02;8.55;;;;;;;;;;6136459;23;20013;-96
2024/02/11 05:06:51;;;;;;;19.27;9.18;;;;;;;;;;6163048;23;20419;-96
2024/02/11 05:09:19;;;;;;;15.85;7.32;;;;;;;;;;6136909;23;20017;-96
2024/02/11 05:12:09;;;;;;;19.00;9.43;;;;;;;;;;6163858;23;20415;-96
2024/02/11 05:14:36;;;;;;;13.98;8.25;;;;;;;;;;6160984;23;20006;-96
2024/02/11 05:17:50;;;;;;;18.70;9.70;;;;;;;;;;6169561;23;20005;-96
2024/02/11 05:20:28;;;;;;;15.60;7.20;;;;;;;;;;6076487;23;20005;-96
2024/02/11 05:24:02;;;;;;;14.85;7.38;;;;;;;;;;6141115;23;20439;-96
2024/02/11 05:26:46;;;;;;;13.60;7.32;;;;;;;;;;6115108;23;20006;-96
2024/02/11 05:29:43;;;;;;;21.48;9.68;;;;;;;;;;6144260;23;20008;-96
2024/02/11 05:32:39;;;;;;;14.90;8.10;;;;;;;;;;6158844;23;20018;-96
2024/02/11 05:35:58;;;;;;;20.02;8.48;;;;;;;;;;6138776;23;20001;-96
2024/02/11 05:38:25;;;;;;;15.52;8.10;;;;;;;;;;6159871;23;20005;-96
2024/02/11 05:44:43;;;;;;;13.88;7.47;;;;;;;;;;6114775;23;20046;-96
2024/02/11 05:47:18;;;;;;;16.25;6.70;;;;;;;;;;6171510;23;20040;-96
2024/02/11 05:49:47;;;;;;;12.57;6.88;;;;;;;;;;6148976;23;20037;-95
2024/02/11 05:52:37;;;;;;;15.52;6.78;;;;;;;;;;6149653;23;20009;-96
2024/02/11 05:55:26;;;;;;;15.85;7.25;;;;;;;;;;6128339;23;20009;-96
2024/02/11 05:58:05;;;;;;;13.20;6.75;;;;;;;;;;6173177;23;20009;-96
2024/02/11 06:00:32;;;;;;;16.83;7.47;;;;;;;;;;6142332;23;20025;-96
2024/02/11 06:03:03;;;;;;;13.30;8.35;;;;;;;;;;6133421;23;20073;-96
2024/02/11 06:05:29;;;;;;;13.05;7.78;;;;;;;;;;6130815;23;20009;-96
2024/02/11 06:07:59;;;;;;;15.07;8.38;;;;;;;;;;6133946;23;20005;-95
2024/02/11 06:10:29;;;;;;;15.05;8.40;;;;;;;;;;6135740;23;20182;-92
2024/02/11 06:12:56;;;;;;;12.13;7.20;;;;;;;;;;6134073;23;20001;-89
2024/02/11 06:15:24;;;;;;;19.17;10.55;;;;;;;;;;6147345;23;20010;-95
2024/02/11 06:17:51;;;;;;;14.32;7.18;;;;;;;;;;6141510;23;20012;-95
2024/02/11 06:20:18;;;;;;;18.40;8.02;;;;;;;;;;6133992;23;20435;-94
2024/02/11 06:22:51;;;;;;;16.80;7.07;;;;;;;;;;6133088;23;20005;-96
2024/02/11 06:25:20;;;;;;;11.00;5.65;;;;;;;;;;6132960;23;20093;-96
2024/02/11 06:27:48;;;;;;;11.52;5.80;;;;;;;;;;6132478;23;20001;-93
2024/02/11 06:30:14;;;;;;;12.18;5.90;;;;;;;;;;6134866;23;20013;-94
2024/02/11 06:32:45;;;;;;;13.02;6.45;;;;;;;;;;6132948;23;20012;-94
2024/02/11 06:35:12;;;;;;;13.32;6.00;;;;;;;;;;6132229;23;20002;-95
2024/02/11 06:37:39;;;;;;;12.38;6.32;;;;;;;;;;6170516;23;19993;-96
2024/02/11 06:40:10;;;;;;;14.75;6.30;;;;;;;;;;6159401;23;19985;-92
2024/02/11 06:42:36;;;;;;;14.82;6.25;;;;;;;;;;6144013;23;20041;-96
2024/02/11 06:45:06;;;;;;;13.90;5.97;;;;;;;;;;6133382;23;20438;-94
2024/02/11 06:47:34;;;;;;;16.90;6.68;;;;;;;;;;6110787;23;20014;-95
2024/02/11 06:50:01;;;;;;;13.82;6.18;;;;;;;;;;6133012;23;20016;-94
2024/02/11 06:52:28;;;;;;;12.98;5.55;;;;;;;;;;6133009;23;20013;-95
2024/02/11 06:54:55;;;;;;;12.25;6.28;;;;;;;;;;6133798;23;20063;-96
2024/02/11 06:57:22;;;;;;;11.88;6.15;;;;;;;;;;6135698;23;20029;-96
2024/02/11 06:59:48;;;;;;;14.45;7.00;;;;;;;;;;6133574;23;20045;-96
2024/02/11 07:02:15;;;;;;;17.52;6.38;;;;;;;;;;6133835;23;20013;-96
2024/02/11 07:04:45;;;;;;;13.90;6.03;;;;;;;;;;6134529;23;20423;-96
2024/02/11 07:07:14;;;;;;;13.52;6.38;;;;;;;;;;6157729;23;20013;-95
2024/02/11 07:09:41;;;;;;;18.40;6.75;;;;;;;;;;6157105;23;20084;-95
2024/02/11 07:12:10;;;;;;;12.15;6.32;;;;;;;;;;6135479;23;20006;-96
2024/02/11 07:14:39;;;;;;;15.23;6.72;;;;;;;;;;6136034;23;20331;-96
2024/02/11 07:17:07;;;;;;;11.00;6.75;;;;;;;;;;6136502;23;20012;-96
2024/02/11 07:19:34;;;;;;;19.63;8.55;;;;;;;;;;6135261;23;20028;-95
2024/02/11 07:22:10;;;;;;;19.48;8.70;;;;;;;;;;6134876;23;20005;-95
2024/02/11 07:24:37;;;;;;;19.95;9.50;;;;;;;;;;6112588;23;20013;-95
2024/02/11 07:27:15;;;;;;;18.88;9.15;;;;;;;;;;6111989;23;20048;-95
2024/02/11 07:29:41;;;;;;;17.13;7.85;;;;;;;;;;6137050;23;20013;-96
2024/02/11 07:32:08;;;;;;;14.18;7.78;;;;;;;;;;6136885;23;20014;-96
2024/02/11 07:34:35;;;;;;;17.65;7.60;;;;;;;;;;6112874;23;20490;-96
2024/02/11 07:37:02;;;;;;;16.70;8.35;;;;;;;;;;6136314;23;20009;-96
2024/02/11 07:39:33;;;;;;;18.63;7.85;;;;;;;;;;6138330;23;20028;-96
2024/02/11 07:41:59;;;;;;;19.67;8.30;;;;;;;;;;6111145;23;20036;-96
2024/02/11 07:44:26;;;;;;;16.25;7.55;;;;;;;;;;6141700;23;20033;-96
2024/02/11 07:47:14;;;;;;;16.77;8.10;;;;;;;;;;6142288;23;20032;-96
2024/02/11 07:50:01;;;;;;;13.93;6.85;;;;;;;;;;6142274;23;20016;-95
2024/02/11 07:52:29;;;;;;;12.55;6.90;;;;;;;;;;6139099;23;20089;-96
2024/02/11 07:55:14;;;;;;;13.85;7.75;;;;;;;;;;6116096;23;20010;-96
2024/02/11 07:57:55;;;;;;;15.23;8.20;;;;;;;;;;6177826;23;20001;-96
2024/02/11 08:03:53;;;;;;;15.93;8.30;;;;;;;;;;6131314;23;20096;-94
2024/02/11 08:09:56;;;;;;;15.45;7.78;;;;;;;;;;5989668;24;20374;-95
2024/02/11 08:12:28;;;;;;;15.30;8.48;;;;;;;;;;5964276;24;20012;-95
2024/02/11 08:21:39;;;;;;;16.73;7.43;;;;;;;;;;6127019;23;20006;-96
2024/02/11 08:24:06;;;;;;;14.73;8.27;;;;;;;;;;6124705;23;20006;-95
2024/02/11 08:26:48;;;;;;;19.23;8.40;;;;;;;;;;6119569;23;20021;-94
2024/02/11 08:29:28;;;;;;;17.80;8.43;;;;;;;;;;6133094;23;20002;-96
2024/02/11 08:35:20;;;;;;;20.40;9.48;;;;;;;;;;6075543;23;20025;-95
2024/02/11 08:43:55;;;;;;;16.07;8.87;;;;;;;;;;6068447;23;20013;-95
2024/02/11 08:46:24;;;;;;;20.08;10.80;;;;;;;;;;6085014;23;20065;-91
2024/02/11 08:49:36;;;;;;;19.83;10.90;;;;;;;;;;6107283;23;20022;-95
2024/02/11 08:51:46;;;;;;;15.50;9.98;;;;;;;;;;6126426;23;20018;-95
2024/02/11 08:54:34;;;;;;;18.75;9.88;;;;;;;;;;6108592;23;20013;-95
2024/02/11 08:57:37;;;;;;;19.35;10.25;;;;;;;;;;6113996;23;20006;-94
2024/02/11 09:00:25;;;;;;;19.88;9.57;;;;;;;;;;6133109;23;20432;-93
2024/02/11 09:02:53;;;;;;;19.60;9.50;;;;;;;;;;6137499;23;20006;-92
2024/02/11 09:05:20;;;;;;;16.23;9.63;;;;;;;;;;6111655;23;20006;-93
2024/02/11 09:07:47;;;;;;;18.80;9.10;;;;;;;;;;6081330;23;20014;-91
2024/02/11 09:10:15;;;;;;;19.60;9.10;;;;;;;;;;6105170;23;20376;-94
2024/02/11 09:12:45;;;;;;;19.40;9.82;;;;;;;;;;6104661;23;20092;-93
2024/02/11 09:15:15;;;;;;;17.20;10.25;;;;;;;;;;6107305;23;20058;-96
2024/02/11 09:17:43;;;;;;;22.77;9.88;;;;;;;;;;6108634;23;20041;-96
2024/02/11 09:20:13;;;;;;;27.00;13.40;;;;;;;;;;6105917;23;20336;-96
2024/02/11 09:22:39;;;;;;;22.80;10.77;;;;;;;;;;6110061;23;20021;-94
2024/02/11 09:28:01;;;;;;;25.35;11.55;;;;;;;;;;6105430;23;19943;-95
2024/02/11 09:30:30;;;;;;;19.73;12.10;;;;;;;;;;6084567;23;20074;-96
2024/02/11 09:32:56;;;;;;;19.80;10.63;;;;;;;;;;6079443;23;20007;-96
2024/02/11 09:35:27;;;;;;;17.38;10.57;;;;;;;;;;6077851;23;19998;-96
2024/02/11 09:37:53;;;;;;;18.02;11.38;;;;;;;;;;6077021;23;20011;-96
2024/02/11 09:40:19;;;;;;;23.80;12.50;;;;;;;;;;6078490;23;20006;-96
2024/02/11 09:42:46;;;;;;;20.92;11.65;;;;;;;;;;6081999;23;20003;-96
2024/02/11 09:48:49;;;;;;;18.17;11.25;;;;;;;;;;6037336;23;20030;-96
2024/02/11 09:52:00;;;;;;;;;;;;;;;;;;;;;
2024/02/11 09:57:35;;;;;;;18.40;10.45;;;;;;;;;;6094931;23;20036;-95
2024/02/11 10:00:12;;;;;;;17.13;11.25;;;;;;;;;;6182421;23;20013;-96
2024/02/11 10:05:39;;;;;;;20.38;12.20;;;;;;;;;;6193176;23;20065;-96
2024/02/11 10:09:00;;;;;;;;;;;;;;;;;;;;;
2024/02/11 10:17:48;;;;;;;17.08;9.20;;;;;;;;;;6096262;23;20018;-96
2024/02/11 10:20:22;;;;;;;21.02;11.80;;;;;;;;;;6081997;23;20007;-95
2024/02/11 10:22:48;;;;;;;;;;;;;;;;;;6087253;23;20007;-93
2024/02/11 10:25:26;;;;;;;21.20;12.80;;;;;;;;;;6104909;23;19912;-96
2024/02/11 10:27:52;;;;;;;22.38;10.77;;;;;;;;;;6080089;23;20045;-96
2024/02/11 10:36:48;;;;;;;16.70;11.25;;;;;;;;;;6134628;23;20013;-96
2024/02/11 10:39:46;;;;;;;18.42;10.95;;;;;;;;;;6112997;23;20017;-96
2024/02/11 10:42:13;;;;;;;17.02;9.20;;;;;;;;;;6093351;23;20006;-95
2024/02/11 10:44:55;;;;;;;17.98;9.57;;;;;;;;;;6112360;23;20013;-95
2024/02/11 10:50:21;;;;;;;18.20;10.68;;;;;;;;;;6128314;23;20022;-95
2024/02/11 10:52:57;;;;;;;16.80;11.45;;;;;;;;;;6108462;23;20320;-96
2024/02/11 10:55:26;;;;;;;22.33;11.50;;;;;;;;;;6138588;23;20006;-96
2024/02/11 10:57:53;;;;;;;15.73;9.18;;;;;;;;;;6106652;23;20490;-95
2024/02/11 11:00:24;;;;;;;18.27;12.45;;;;;;;;;;6114989;23;20010;-94
2024/02/11 11:03:16;;;;;;;17.63;9.93;;;;;;;;;;6105712;23;20037;-96
2024/02/11 11:08:21;;;;;;;15.63;11.00;;;;;;;;;;6131514;23;20105;-96
2024/02/11 11:10:59;;;;;;;14.13;10.63;;;;;;;;;;6108723;23;20077;-95
2024/02/11 11:13:31;;;;;;;14.45;9.38;;;;;;;;;;6107346;23;20084;-95
2024/02/11 11:16:13;;;;;;;13.88;9.60;;;;;;;;;;6108207;23;20006;-96
2024/02/11 11:18:40;;;;;;;19.48;13.02;;;;;;;;;;6110108;23;20006;-96
2024/02/11 11:21:07;;;;;;;18.90;10.40;;;;;;;;;;6108112;23;20418;-95
2024/02/11 11:23:39;;;;;;;14.02;10.07;;;;;;;;;;6134645;23;20412;-96
2024/02/11 11:29:19;;;;;;;16.05;9.25;;;;;;;;;;5984864;23;20501;-94
2024/02/11 11:31:55;;;;;;;13.98;10.10;;;;;;;;;;6106282;23;20018;-96
2024/02/11 11:34:30;;;;;;;12.38;8.57;;;;;;;;;;6109074;23;20455;-96
2024/02/11 11:36:56;;;;;;;12.75;9.07;;;;;;;;;;6109125;23;20057;-95
2024/02/11 11:39:25;;;;;;;12.82;9.40;;;;;;;;;;6107628;23;20042;-96
2024/02/11 11:41:54;;;;;;;16.25;10.50;;;;;;;;;;6110059;23;20033;-95
2024/02/11 11:44:21;;;;;;;12.82;9.93;;;;;;;;;;6083615;23;20020;-94
2024/02/11 11:46:51;;;;;;;14.05;9.80;;;;;;;;;;6110113;23;20006;-93
2024/02/11 11:49:21;;;;;;;14.07;9.23;;;;;;;;;;6135601;23;20016;-96
2024/02/11 11:51:50;;;;;;;10.40;7.40;;;;;;;;;;6127239;23;20087;-95
2024/02/11 11:54:20;;;;;;;10.20;7.15;;;;;;;;;;6129348;23;20013;-94
2024/02/11 11:56:46;;;;;;;11.93;8.82;;;;;;;;;;6118548;23;20037;-95
2024/02/11 11:59:12;;;;;;;12.55;8.50;;;;;;;;;;6111100;23;20335;-95
2024/02/11 12:01:38;;;;;;;13.35;8.43;;;;;;;;;;6112302;23;20010;-96
2024/02/11 12:25:23;;;;;;;11.40;7.20;;;;;;;;;;6139034;23;20041;-96
2024/02/11 12:27:44;;;;;;;10.68;7.90;;;;;;;;;;6121172;23;20073;-96
2024/02/11 12:33:06;;;;;;;10.60;7.03;;;;;;;;;;6137814;23;20081;-93
2024/02/11 12:35:35;;;;;;;12.13;7.18;;;;;;;;;;6086946;23;20034;-96
2024/02/11 12:38:02;;;;;;;9.48;7.00;;;;;;;;;;6109487;23;20016;-92
2024/02/11 12:40:40;;;;;;;9.60;7.85;;;;;;;;;;6110611;23;20002;-95
2024/02/11 12:43:12;;;;;;;8.68;5.55;;;;;;;;;;6105323;23;20010;-92
2024/02/11 12:45:42;;;;;;;7.43;5.65;;;;;;;;;;6109003;23;20009;-96
2024/02/11 12:48:08;;;;;;;7.55;5.38;;;;;;;;;;6105107;23;20005;-91
2024/02/11 12:50:40;;;;;;;9.20;5.63;;;;;;;;;;6105821;23;20018;-91
2024/02/11 12:53:08;;;;;;;7.75;4.85;;;;;;;;;;6104760;23;20081;-93
2024/02/11 12:55:34;;;;;;;6.43;5.60;;;;;;;;;;6104593;23;20061;-92
2024/02/11 12:58:00;;;;;;;7.28;5.15;;;;;;;;;;6111445;23;19998;-96
2024/02/11 13:00:49;;;;;;;7.03;5.15;;;;;;;;;;6114469;23;20029;-94
2024/02/11 13:09:14;;;;;;;7.35;6.00;;;;;;;;;;6188091;23;20033;-94
2024/02/11 13:11:49;;;;;;;7.10;4.88;;;;;;;;;;6197009;23;20074;-93
2024/02/11 13:14:16;;;;;;;8.57;5.10;;;;;;;;;;6169404;23;20005;-96
2024/02/11 13:17:11;;;;;;;7.75;5.70;;;;;;;;;;6190735;23;20069;-96
2024/02/11 13:19:44;;;;;;;7.57;5.50;;;;;;;;;;6047269;23;20082;-96
2024/02/11 13:22:20;;;;;;;5.47;4.55;;;;;;;;;;6184667;23;20071;-93
2024/02/11 13:24:46;;;;;;;7.38;5.25;;;;;;;;;;6164664;23;20008;-93
2024/02/11 13:30:09;;;;;;;6.70;5.40;;;;;;;;;;6177000;23;20009;-95
2024/02/11 13:32:40;;;;;;;8.63;6.38;;;;;;;;;;6169388;23;20028;-96
2024/02/11 14:07:21;;;;;;;7.03;6.32;;;;;;;;;;6122247;23;20041;-96
2024/02/11 14:40:26;;;;;;;2.63;1.50;;;;;;;;;;6152550;23;20036;-96
2024/02/11 14:48:36;;;;;;;2.90;1.75;;;;;;;;;;6108467;23;20026;-95
2024/02/11 14:51:05;;;;;;;2.92;1.67;;;;;;;;;;6078576;23;20014;-95
2024/02/11 14:53:34;;;;;;;2.75;1.73;;;;;;;;;;6075716;23;20082;-92
2024/02/11 14:56:06;;;;;;;2.65;1.70;;;;;;;;;;6075243;23;20011;-94
2024/02/11 14:58:38;;;;;;;3.15;1.88;;;;;;;;;;6076549;23;20002;-94
2024/02/11 15:01:06;;;;;;;3.80;1.80;;;;;;;;;;6078270;23;20010;-95
2024/02/11 15:03:39;;;;;;;2.90;1.95;;;;;;;;;;6076508;23;20010;-94
2024/02/11 15:06:05;;;;;;;2.17;1.40;;;;;;;;;;6076793;23;20109;-95
2024/02/11 15:08:33;;;;;;;1.30;0.95;;;;;;;;;;6084802;23;19990;-95
2024/02/11 15:11:06;;;;;;;1.52;1.15;;;;;;;;;;6081818;23;20014;-96
2024/02/11 15:13:37;;;;;;;1.50;1.10;;;;;;;;;;6076909;23;20010;-92
2024/02/11 15:16:57;;;;;;;2.13;1.42;;;;;;;;;;6102421;23;20018;-92
2024/02/11 15:19:19;;;;;;;2.08;1.50;;;;;;;;;;5996711;23;20012;-91
2024/02/11 15:21:45;;;;;;;1.45;1.00;;;;;;;;;;6079624;23;19999;-89
2024/02/11 15:24:11;;;;;;;2.28;1.48;;;;;;;;;;6100309;23;19994;-93
2024/02/11 15:26:37;;;;;;;3.40;1.67;;;;;;;;;;6068363;23;20037;-94
2024/02/11 15:29:03;;;;;;;1.73;1.15;;;;;;;;;;6077655;23;20006;-88
2024/02/11 15:31:30;;;;;;;2.55;2.10;;;;;;;;;;6072712;23;20014;-88
2024/02/11 15:33:59;;;;;;;1.42;1.08;;;;;;;;;;6072764;23;20002;-87
2024/02/11 15:36:25;;;;;;;2.33;1.38;;;;;;;;;;6072704;23;20002;-94
2024/02/11 15:38:51;;;;;;;2.60;1.58;;;;;;;;;;6073239;23;20006;-94
2024/02/11 15:41:17;;;;;;;1.50;1.30;;;;;;;;;;6075393;23;20324;-90
2024/02/11 15:43:48;;;;;;;1.33;1.23;;;;;;;;;;6073902;23;20140;-95
2024/02/11 15:46:17;;;;;;;2.13;1.50;;;;;;;;;;6073554;23;20017;-95
2024/02/11 15:48:44;;;;;;;1.50;1.30;;;;;;;;;;6073958;23;20049;-95
2024/02/11 15:51:14;;;;;;;1.73;1.27;;;;;;;;;;6073197;23;20014;-88
2024/02/11 15:53:40;;;;;;;1.90;1.58;;;;;;;;;;6072905;23;20491;-89
2024/02/11 15:56:09;;;;;;;5.35;1.48;;;;;;;;;;6072154;23;20077;-93
2024/02/11 15:58:35;;;;;;;1.80;1.40;;;;;;;;;;6072296;23;20459;-93
2024/02/11 16:01:02;;;;;;;1.77;1.45;;;;;;;;;;6072538;23;20011;-94
2024/02/11 16:03:30;;;;;;;1.73;1.17;;;;;;;;;;6073295;23;20003;-93
2024/02/11 16:05:57;;;;;;;2.65;1.30;;;;;;;;;;6098055;23;20003;-95
2024/02/11 16:08:27;;;;;;;1.45;1.20;;;;;;;;;;6098370;23;20030;-96
2024/02/11 16:10:54;;;;;;;2.00;1.55;;;;;;;;;;6099325;23;20038;-94
2024/02/11 16:13:23;;;;;;;2.25;1.52;;;;;;;;;;6099221;23;20006;-94
2024/02/11 16:15:54;;;;;;;6.57;1.42;;;;;;;;;;6073927;23;20013;-90
2024/02/11 16:18:20;;;;;;;2.65;1.50;;;;;;;;;;6072785;23;20034;-91
2024/02/11 16:20:48;;;;;;;2.03;1.20;;;;;;;;;;6091811;23;20054;-93
2024/02/11 16:23:18;;;;;;;1.90;1.45;;;;;;;;;;6117629;23;20028;-90
2024/02/11 16:26:20;;;;;;;2.15;1.15;;;;;;;;;;6114398;23;20011;-90
2024/02/11 16:29:03;;;;;;;1.73;1.48;;;;;;;;;;6118145;23;20006;-92
2024/02/11 16:31:52;;;;;;;1.85;1.42;;;;;;;;;;6097444;23;20025;-91
2024/02/11 16:34:43;;;;;;;2.45;1.50;;;;;;;;;;6114781;23;20065;-96
2024/02/11 16:37:09;;;;;;;2.08;1.70;;;;;;;;;;6073701;23;20089;-95
2024/02/11 16:39:39;;;;;;;3.42;2.08;;;;;;;;;;6073670;23;20028;-94
2024/02/11 16:42:08;;;;;;;2.08;1.60;;;;;;;;;;6076109;23;20499;-96
2024/02/11 16:44:53;;;;;;;2.40;2.00;;;;;;;;;;6073374;23;20006;-94
2024/02/11 16:47:24;;;;;;;2.15;1.75;;;;;;;;;;6073819;23;20423;-90
2024/02/11 16:49:50;;;;;;;3.08;2.38;;;;;;;;;;6073576;23;20011;-90
2024/02/11 16:52:17;;;;;;;3.25;2.25;;;;;;;;;;6076016;23;20070;-88
2024/02/11 16:54:45;;;;;;;2.67;2.10;;;;;;;;;;6073651;23;20002;-91
2024/02/11 16:57:13;;;;;;;3.25;2.40;;;;;;;;;;6074566;23;20021;-89
2024/02/11 16:59:49;;;;;;;2.55;2.00;;;;;;;;;;6074401;23;20006;-89
2024/02/11 17:02:18;;;;;;;3.20;2.45;;;;;;;;;;6074679;23;20002;-94
2024/02/11 17:04:50;;;;;;;3.15;2.22;;;;;;;;;;6075377;23;20002;-88
2024/02/11 17:07:16;;;;;;;2.92;2.20;;;;;;;;;;6094215;23;19998;-94
2024/02/11 17:09:50;;;;;;;3.45;2.38;;;;;;;;;;6099454;23;20007;-93
2024/02/11 17:12:18;;;;;;;3.00;2.40;;;;;;;;;;6077145;23;20018;-92
2024/02/11 17:14:44;;;;;;;2.72;2.40;;;;;;;;;;6100026;23;20002;-94
2024/02/11 17:17:34;;;;;;;2.90;2.13;;;;;;;;;;6074216;23;20332;-94
2024/02/11 17:20:07;;;;;;;3.00;2.35;;;;;;;;;;6074875;23;20010;-93
2024/02/11 17:22:33;;;;;;;2.50;2.17;;;;;;;;;;6078473;23;20380;-89
2024/02/11 17:25:04;;;;;;;2.50;2.10;;;;;;;;;;6076510;23;20013;-94
2024/02/11 17:27:39;;;;;;;2.80;2.20;;;;;;;;;;6074743;23;20017;-94
2024/02/11 17:30:13;;;;;;;3.00;2.55;;;;;;;;;;6074298;23;20006;-94
2024/02/11 17:32:42;;;;;;;3.70;2.50;;;;;;;;;;6097354;23;20010;-95
2024/02/11 17:35:11;;;;;;;2.55;1.92;;;;;;;;;;6074232;23;20490;-93
2024/02/11 17:37:38;;;;;;;4.03;2.42;;;;;;;;;;6074655;23;20014;-95
2024/02/11 17:40:10;;;;;;;3.38;2.28;;;;;;;;;;6074056;23;20324;-88
2024/02/11 17:42:36;;;;;;;2.58;2.20;;;;;;;;;;6098691;23;20013;-94
2024/02/11 17:45:04;;;;;;;3.03;2.60;;;;;;;;;;6074192;23;20034;-90
2024/02/11 17:47:33;;;;;;;3.00;2.30;;;;;;;;;;6074738;23;20042;-96
2024/02/11 17:50:05;;;;;;;4.10;2.92;;;;;;;;;;6074293;23;20002;-95
2024/02/11 17:52:31;;;;;;;2.53;2.33;;;;;;;;;;6074288;23;20017;-96
2024/02/11 17:55:09;;;;;;;3.25;2.92;;;;;;;;;;6073028;23;20011;-94
2024/02/11 17:57:43;;;;;;;3.03;2.70;;;;;;;;;;6074704;23;20018;-93
2024/02/11 18:00:17;;;;;;;3.45;2.90;;;;;;;;;;6073327;23;20017;-92
2024/02/11 18:02:48;;;;;;;3.03;2.67;;;;;;;;;;6074191;23;20105;-95
2024/02/11 18:05:21;;;;;;;3.75;2.30;;;;;;;;;;6074326;23;20113;-94
2024/02/11 18:08:22;;;;;;;3.03;2.38;;;;;;;;;;6039376;23;20090;-95
2024/02/11 18:10:48;;;;;;;2.72;2.42;;;;;;;;;;6015580;23;20015;-89
2024/02/11 18:13:19;;;;;;;2.90;2.58;;;;;;;;;;6038900;23;20111;-95
2024/02/11 18:15:51;;;;;;;3.10;2.50;;;;;;;;;;6040073;23;20007;-94
2024/02/11 18:18:19;;;;;;;3.22;2.70;;;;;;;;;;6016124;23;20067;-94
2024/02/11 18:20:46;;;;;;;3.78;3.00;;;;;;;;;;6015714;23;20008;-96
2024/02/11 18:23:17;;;;;;;5.15;3.22;;;;;;;;;;6016959;23;20039;-95
2024/02/11 18:26:02;;;;;;;3.63;2.70;;;;;;;;;;6043938;23;20007;-96
2024/02/11 18:28:28;;;;;;;3.78;2.70;;;;;;;;;;6018652;23;20008;-91
2024/02/11 18:31:10;;;;;;;3.08;2.78;;;;;;;;;;6016933;23;20016;-93
2024/02/11 18:33:39;;;;;;;3.92;2.90;;;;;;;;;;6015444;23;20401;-92
2024/02/11 18:36:09;;;;;;;4.13;3.05;;;;;;;;;;6017376;23;20039;-95
2024/02/11 18:38:39;;;;;;;4.20;3.20;;;;;;;;;;6041137;23;20511;-94
2024/02/11 18:41:13;;;;;;;3.58;3.15;;;;;;;;;;6074932;23;20061;-90
2024/02/11 18:43:45;;;;;;;;;;;;;;;;;;6076114;23;20006;-91
2024/02/11 18:46:14;;;;;;;3.08;2.60;;;;;;;;;;6075750;23;19902;-94
2024/02/11 18:48:40;;;;;;;3.25;2.75;;;;;;;;;;6075872;23;20014;-94
2024/02/11 18:51:06;;;;;;;3.80;2.85;;;;;;;;;;6089299;23;20078;-94
2024/02/11 18:53:36;;;;;;;4.40;3.78;;;;;;;;;;6100536;23;20006;-92
2024/02/11 18:59:07;;;;;;;3.23;2.80;;;;;;;;;;6099423;23;20029;-96
2024/02/11 19:01:40;;;;;;;4.15;2.60;;;;;;;;;;6075468;23;20022;-94
2024/02/11 19:04:06;;;;;;;4.03;3.42;;;;;;;;;;6074271;23;20035;-91
2024/02/11 19:06:36;;;;;;;3.88;3.22;;;;;;;;;;6074700;23;20006;-95